Time;durP1;ratioP1;P1;durP2;ratioP2;P2;SDS_P1;SDS_P2;PMS_P1;PMS_P2;Temp;Humidity;BMP_temperature;BMP_pressure;BME280_temperature;BME280_humidity;BME280_pressure;Samples;Min_cycle;Max_cycle;Signal;HPM_P1;HPM_P2
2022/06/22 00:01:22;;;;;;;7.10;3.60;;;;;;;12.09;73.89;99732.58;130430;1268;108726;-74
2022/06/22 00:04:30;;;;;;;3.30;2.80;;;;;;;12.08;73.98;99750.79;130395;1268;108755;-74
2022/06/22 00:07:39;;;;;;;3.20;2.80;;;;;;;12.02;74.07;99752.77;130371;1268;108658;-73
2022/06/22 00:10:53;;;;;;;4.10;2.80;;;;;;;11.97;73.75;99763.21;130415;1268;108850;-73
2022/06/22 00:14:02;;;;;;;3.80;2.70;;;;;;;11.90;74.07;99757.25;130370;1268;107690;-74
2022/06/22 00:17:16;;;;;;;3.00;2.70;;;;;;;11.86;74.10;99762.61;130374;1268;108607;-74
2022/06/22 00:20:25;;;;;;;4.50;2.70;;;;;;;11.83;73.83;99767.94;130414;1268;107390;-73
2022/06/22 00:23:39;;;;;;;4.50;2.90;;;;;;;11.81;73.69;99770.55;130435;1267;108646;-74
2022/06/22 00:26:53;;;;;;;3.90;2.80;;;;;;;11.77;73.64;99774.83;130404;1268;108761;-74
2022/06/22 00:30:22;;;;;;;5.40;2.90;;;;;;;11.72;73.81;99775.63;130266;1268;108957;-75
2022/06/22 00:33:27;;;;;;;3.90;2.60;;;;;;;11.65;73.56;99778.34;130471;1268;108933;-74
2022/06/22 00:36:37;;;;;;;3.40;2.80;;;;;;;11.58;73.35;99779.48;130530;1267;108931;-75
2022/06/22 00:39:45;;;;;;;4.10;3.10;;;;;;;11.53;73.52;99781.13;130519;1268;108881;-75
2022/06/22 00:42:53;;;;;;;4.00;2.90;;;;;;;11.46;73.71;99777.77;130199;1267;108923;-74
2022/06/22 00:46:00;;;;;;;4.80;2.40;;;;;;;11.40;73.50;99774.91;130502;1268;109009;-75
2022/06/22 00:49:11;;;;;;;4.00;2.70;;;;;;;11.33;73.60;99770.64;130475;1268;107015;-74
2022/06/22 00:52:25;;;;;;;3.00;2.40;;;;;;;11.35;73.68;99767.80;130565;1268;108718;-74
2022/06/22 00:55:34;;;;;;;3.70;2.60;;;;;;;11.36;73.37;99761.27;130441;1268;108673;-74
2022/06/22 00:58:46;;;;;;;4.10;2.40;;;;;;;11.33;73.46;99764.02;130365;1267;108784;-73
2022/06/22 01:01:56;;;;;;;4.70;3.10;;;;;;;11.31;73.53;99770.84;130385;1267;108703;-74
2022/06/22 01:05:11;;;;;;;5.10;2.60;;;;;;;11.28;73.74;99770.12;130366;1268;107654;-74
2022/06/22 01:08:25;;;;;;;4.50;2.70;;;;;;;11.27;73.87;99772.26;130360;1268;108688;-74
2022/06/22 01:15:06;;;;;;;4.50;2.30;;;;;;;11.19;74.10;99761.55;130315;1267;108765;-75
2022/06/22 01:18:15;;;;;;;4.00;2.50;;;;;;;11.18;74.07;99764.42;130436;1268;108588;-77
2022/06/22 01:21:28;;;;;;;4.40;2.60;;;;;;;11.17;73.86;99770.52;130440;1268;109173;-76
2022/06/22 01:24:44;;;;;;;3.80;2.60;;;;;;;11.16;73.75;99771.30;130454;1268;108849;-76
2022/06/22 01:27:51;;;;;;;5.40;2.70;;;;;;;11.15;74.07;99773.71;130479;1267;108760;-77
2022/06/22 01:31:03;;;;;;;3.30;2.70;;;;;;;11.15;73.86;99771.04;130474;1267;106987;-77
2022/06/22 01:34:16;;;;;;;3.80;3.10;;;;;;;11.15;74.11;99772.52;130235;1267;108766;-77
2022/06/22 01:37:25;;;;;;;4.10;2.70;;;;;;;11.13;74.38;99771.94;130454;1268;108706;-77
2022/06/22 01:40:39;;;;;;;4.10;2.50;;;;;;;11.11;74.45;99764.52;130500;1268;108781;-76
2022/06/22 01:43:51;;;;;;;4.80;2.70;;;;;;;11.10;74.31;99770.17;130540;1268;108804;-76
2022/06/22 01:47:23;;;;;;;4.30;2.90;;;;;;;11.10;74.43;99772.31;130468;1266;108850;-79
2022/06/22 01:50:38;;;;;;;4.30;3.10;;;;;;;11.12;74.88;99775.79;130441;1268;108704;-76
2022/06/22 01:53:48;;;;;;;6.40;3.60;;;;;;;11.13;74.68;99774.23;130436;1267;108773;-78
2022/06/22 01:57:03;;;;;;;5.80;3.50;;;;;;;11.14;74.44;99770.11;130348;1267;108753;-75
2022/06/22 02:00:14;;;;;;;6.20;3.00;;;;;;;11.09;74.69;99770.94;130382;1268;109221;-75
2022/06/22 02:03:23;;;;;;;3.90;2.60;;;;;;;11.07;74.68;99776.25;130489;1268;108752;-73
2022/06/22 02:10:03;;;;;;;4.00;2.50;;;;;;;11.05;74.42;99784.80;130493;1267;107059;-72
2022/06/22 02:13:22;;;;;;;4.80;2.30;;;;;;;11.06;74.73;99788.10;130465;1267;108681;-70
2022/06/22 02:16:33;;;;;;;3.20;2.40;;;;;;;11.05;74.37;99776.74;130448;1267;108824;-72
2022/06/22 02:19:42;;;;;;;3.00;2.20;;;;;;;11.06;74.57;99770.25;130247;1267;108972;-72
2022/06/22 02:22:48;;;;;;;3.80;2.60;;;;;;;11.03;74.11;99765.23;130500;1268;108595;-73
2022/06/22 02:26:02;;;;;;;5.90;2.20;;;;;;;10.97;74.29;99763.30;130458;1267;108741;-72
2022/06/22 02:29:08;;;;;;;4.20;2.50;;;;;;;10.94;74.16;99763.68;130523;1267;108903;-80
2022/06/22 02:32:18;;;;;;;2.60;2.20;;;;;;;10.90;74.29;99774.80;130400;1268;108809;-77
2022/06/22 02:35:23;;;;;;;3.10;2.40;;;;;;;10.87;74.05;99782.23;130318;1268;108827;-76
2022/06/22 02:38:29;;;;;;;3.40;2.30;;;;;;;10.84;74.16;99789.38;130343;1267;108466;-75
2022/06/22 02:44:59;;;;;;;3.40;2.40;;;;;;;10.88;74.32;99785.49;130465;1267;108758;-77
2022/06/22 02:48:24;;;;;;;4.90;3.10;;;;;;;10.93;74.75;99783.93;130443;1267;109076;-76
2022/06/22 02:51:33;;;;;;;5.30;2.90;;;;;;;10.97;74.99;99784.04;130473;1268;108698;-76
2022/06/22 02:54:44;;;;;;;3.70;2.60;;;;;;;10.97;74.83;99782.41;130425;1268;108792;-79
2022/06/22 02:57:58;;;;;;;3.20;2.20;;;;;;;11.00;74.74;99788.00;130893;1267;110068;-77
2022/06/22 03:01:06;;;;;;;3.50;1.90;;;;;;;11.00;74.65;99796.31;130420;1267;108847;-77
2022/06/22 03:04:14;;;;;;;5.40;2.70;;;;;;;11.05;74.93;99792.64;130428;1267;108715;-78
2022/06/22 03:07:22;;;;;;;4.00;2.50;;;;;;;11.14;74.97;99789.00;130458;1268;108870;-77
2022/06/22 03:10:31;;;;;;;4.60;2.80;;;;;;;11.24;75.09;99787.48;130477;1267;108670;-74
2022/06/22 03:13:40;;;;;;;4.00;2.80;;;;;;;11.34;75.15;99791.87;130373;1268;108640;-76
2022/06/22 03:16:50;;;;;;;5.90;3.00;;;;;;;11.49;75.50;99789.61;130267;1267;108647;-76
2022/06/22 03:20:00;;;;;;;3.40;2.70;;;;;;;11.73;76.08;99794.92;130325;1268;108941;-77
2022/06/22 03:23:26;;;;;;;3.10;2.50;;;;;;;12.13;75.74;99799.82;130355;1268;108772;-76
2022/06/22 03:26:36;;;;;;;3.50;2.60;;;;;;;12.62;75.57;99803.33;130354;1268;108743;-76
2022/06/22 03:29:46;;;;;;;3.00;2.40;;;;;;;13.06;75.21;99799.14;130375;1265;108747;-76
2022/06/22 03:32:55;;;;;;;4.00;2.60;;;;;;;13.45;75.16;99801.19;130346;1268;108306;-75
2022/06/22 03:36:07;;;;;;;3.40;2.40;;;;;;;13.87;74.99;99800.67;130343;1268;109502;-78
2022/06/22 03:39:16;;;;;;;4.10;2.30;;;;;;;14.28;74.54;99801.44;130386;1268;108690;-76
2022/06/22 03:42:26;;;;;;;3.20;2.40;;;;;;;14.63;74.44;99804.41;130419;1268;108795;-76
2022/06/22 03:45:36;;;;;;;6.40;2.80;;;;;;;14.97;73.99;99804.39;130371;1268;108669;-76
2022/06/22 03:48:47;;;;;;;3.70;2.70;;;;;;;15.26;73.93;99799.83;130305;1268;108842;-76
2022/06/22 03:51:58;;;;;;;3.30;3.00;;;;;;;15.62;73.64;99797.06;130373;1268;108992;-76
2022/06/22 03:55:07;;;;;;;4.30;3.20;;;;;;;15.89;73.25;99795.31;130429;1267;108667;-77
2022/06/22 03:58:13;;;;;;;4.70;3.60;;;;;;;16.14;73.32;99794.35;130348;1268;108631;-79
2022/06/22 04:01:21;;;;;;;3.20;2.90;;;;;;;16.33;72.71;99793.02;130257;1267;108743;-77
2022/06/22 04:04:27;;;;;;;4.00;3.00;;;;;;;16.52;73.01;99796.30;130439;1268;108729;-76
2022/06/22 04:07:37;;;;;;;5.00;3.00;;;;;;;16.73;72.61;99796.67;130390;1268;108832;-78
2022/06/22 04:10:49;;;;;;;4.20;3.00;;;;;;;16.92;72.39;99793.14;130341;1268;108565;-77
2022/06/22 04:13:56;;;;;;;;;;;;;;;17.11;72.44;99791.32;130387;1268;108649;-78
2022/06/22 04:17:05;;;;;;;5.10;3.00;;;;;;;17.29;72.50;99795.51;130413;1268;108793;-77
2022/06/22 04:20:22;;;;;;;4.20;3.30;;;;;;;17.50;72.13;99800.14;130389;1268;108851;-77
2022/06/22 04:23:33;;;;;;;4.30;3.20;;;;;;;17.64;71.31;99795.99;130320;1268;108981;-78
2022/06/22 04:26:42;;;;;;;4.30;3.50;;;;;;;17.56;69.27;99786.80;130293;1268;108727;-77
2022/06/22 04:29:52;;;;;;;5.90;3.70;;;;;;;17.44;70.28;99791.14;130428;1268;109127;-78
2022/06/22 04:33:05;;;;;;;4.90;3.70;;;;;;;17.43;69.38;99790.27;130392;1268;108667;-77
2022/06/22 04:36:16;;;;;;;5.20;4.20;;;;;;;17.33;69.12;99792.46;130355;1268;108731;-77
2022/06/22 04:39:30;;;;;;;6.30;4.30;;;;;;;17.22;68.80;99791.64;130371;1268;108678;-78
2022/06/22 04:42:36;;;;;;;5.90;3.70;;;;;;;17.23;70.10;99796.92;130372;1268;109491;-78
2022/06/22 04:45:44;;;;;;;4.30;3.60;;;;;;;17.21;68.47;99797.91;130415;1268;108832;-78
2022/06/22 04:48:53;;;;;;;4.00;3.20;;;;;;;17.06;68.21;99799.90;130421;1268;107286;-77
2022/06/22 04:52:03;;;;;;;6.50;3.40;;;;;;;16.99;69.51;99803.67;130342;1268;109157;-77
2022/06/22 04:55:15;;;;;;;5.20;3.10;;;;;;;17.08;69.61;99805.88;130429;1268;108930;-78
2022/06/22 04:58:32;;;;;;;6.60;3.40;;;;;;;17.30;69.85;99806.00;130338;1268;108763;-77
2022/06/22 05:01:41;;;;;;;6.80;3.70;;;;;;;17.40;69.12;99806.70;130398;1268;108808;-78
2022/06/22 05:04:49;;;;;;;5.40;3.60;;;;;;;17.39;68.12;99805.87;130388;1266;107136;-79
2022/06/22 05:08:00;;;;;;;6.10;3.60;;;;;;;17.35;67.78;99806.25;130327;1268;107692;-80
2022/06/22 05:11:13;;;;;;;6.10;3.40;;;;;;;17.38;68.89;99810.35;130338;1267;108885;-80
2022/06/22 05:14:22;;;;;;;6.50;3.60;;;;;;;17.36;67.69;99816.16;130418;1268;108836;-78
2022/06/22 05:17:31;;;;;;;5.40;4.00;;;;;;;17.33;68.53;99815.38;130397;1268;108698;-78
2022/06/22 05:20:42;;;;;;;4.80;3.70;;;;;;;17.38;68.76;99816.20;130472;1268;108661;-77
2022/06/22 05:23:52;;;;;;;5.90;3.80;;;;;;;17.40;68.20;99824.98;130486;1268;108717;-79
2022/06/22 05:27:00;;;;;;;4.50;3.40;;;;;;;17.27;67.45;99834.05;130495;1267;108716;-77
2022/06/22 05:30:08;;;;;;;5.20;3.50;;;;;;;17.16;67.66;99831.31;130500;1268;108847;-77
2022/06/22 05:33:18;;;;;;;6.30;3.30;;;;;;;17.12;68.33;99834.91;130502;1268;109060;-77
2022/06/22 05:36:27;;;;;;;4.80;3.20;;;;;;;17.20;68.10;99830.17;130489;1268;108694;-77
2022/06/22 05:39:34;;;;;;;4.80;3.40;;;;;;;17.22;67.63;99825.79;130401;1268;108725;-77
2022/06/22 05:42:39;;;;;;;5.30;3.40;;;;;;;17.15;67.98;99828.15;130460;1268;108855;-78
2022/06/22 05:45:49;;;;;;;4.30;3.20;;;;;;;17.11;67.84;99829.09;130371;1268;108953;-77
2022/06/22 05:48:56;;;;;;;4.70;3.60;;;;;;;17.04;67.82;99823.90;130382;1268;108950;-77
2022/06/22 05:52:10;;;;;;;5.70;3.00;;;;;;;17.06;68.03;99827.73;130393;1268;107780;-78
2022/06/22 05:55:24;;;;;;;4.50;3.00;;;;;;;17.11;68.38;99833.70;130502;1268;107801;-77
2022/06/22 05:58:36;;;;;;;5.40;3.10;;;;;;;17.23;68.47;99844.46;130255;1268;108535;-77
2022/06/22 06:01:44;;;;;;;;;;;;;;;17.31;67.78;99843.79;130500;1268;108798;-77
2022/06/22 06:04:55;;;;;;;5.80;3.80;;;;;;;17.26;67.67;99844.79;130323;1268;107260;-76
2022/06/22 06:08:03;;;;;;;5.70;3.80;;;;;;;17.25;68.46;99840.64;130284;1267;107744;-78
2022/06/22 06:11:13;;;;;;;5.40;3.80;;;;;;;17.29;67.68;99842.80;130381;1268;109216;-78
2022/06/22 06:14:25;;;;;;;7.20;4.20;;;;;;;17.30;67.80;99841.42;130533;1268;108897;-77
2022/06/22 06:17:36;;;;;;;8.60;4.10;;;;;;;17.26;67.36;99837.20;130400;1268;108930;-78
2022/06/22 06:20:45;;;;;;;6.20;3.20;;;;;;;17.25;67.80;99829.45;130224;1268;108773;-78
2022/06/22 06:23:55;;;;;;;5.20;3.70;;;;;;;17.33;68.08;99831.73;130396;1268;108948;-77
2022/06/22 06:30:31;;;;;;;4.30;3.10;;;;;;;17.49;68.01;99829.13;130300;1268;108796;-77
2022/06/22 06:33:39;;;;;;;6.70;3.30;;;;;;;17.62;68.05;99832.36;130330;1268;108644;-77
2022/06/22 06:36:51;;;;;;;6.80;3.70;;;;;;;17.67;67.79;99842.73;130360;1268;108692;-77
2022/06/22 06:39:58;;;;;;;6.30;3.70;;;;;;;17.74;68.21;99837.08;130372;1268;108861;-78
2022/06/22 06:43:18;;;;;;;4.60;3.50;;;;;;;17.89;68.34;99833.80;130403;1268;108763;-78
2022/06/22 06:46:28;;;;;;;5.90;3.10;;;;;;;18.03;68.09;99835.42;130337;1268;108649;-78
2022/06/22 06:49:36;;;;;;;5.80;3.00;;;;;;;18.13;67.19;99832.15;130371;1268;108872;-77
2022/06/22 06:52:48;;;;;;;5.90;3.30;;;;;;;18.09;67.26;99835.70;130395;1268;107675;-78
2022/06/22 06:56:00;;;;;;;5.00;3.00;;;;;;;18.13;67.35;99837.02;130400;1268;108923;-77
2022/06/22 06:59:11;;;;;;;5.30;2.70;;;;;;;18.20;67.44;99833.70;130404;1268;109125;-77
2022/06/22 07:02:22;;;;;;;7.50;3.50;;;;;;;18.27;67.16;99826.91;130365;1267;108799;-77
2022/06/22 07:05:30;;;;;;;5.30;2.80;;;;;;;18.30;66.38;99828.73;130499;1268;108719;-77
2022/06/22 07:08:39;;;;;;;7.90;3.50;;;;;;;18.28;66.50;99831.64;130362;1268;108723;-77
2022/06/22 07:11:48;;;;;;;4.90;2.90;;;;;;;18.30;65.42;99835.11;130387;1268;108982;-76
2022/06/22 07:14:54;;;;;;;5.20;3.00;;;;;;;18.24;65.63;99834.14;130389;1268;108634;-77
2022/06/22 07:18:03;;;;;;;4.80;2.50;;;;;;;18.23;65.24;99830.41;130317;1268;108640;-77
2022/06/22 07:21:17;;;;;;;4.80;2.80;;;;;;;18.24;66.35;99831.12;130410;1268;109115;-77
2022/06/22 07:24:26;;;;;;;10.70;3.00;;;;;;;18.38;66.71;99832.27;130350;1268;108645;-77
2022/06/22 07:27:36;;;;;;;4.20;2.60;;;;;;;18.55;66.61;99834.05;130441;1268;108792;-76
2022/06/22 07:30:48;;;;;;;4.60;2.80;;;;;;;18.65;65.37;99837.45;130426;1268;108198;-78
2022/06/22 07:33:59;;;;;;;3.80;2.20;;;;;;;18.67;65.65;99833.23;130454;1268;108825;-78
2022/06/22 07:37:15;;;;;;;4.10;2.20;;;;;;;18.76;65.38;99832.53;130370;1268;108764;-77
2022/06/22 07:40:25;;;;;;;5.70;3.20;;;;;;;18.83;65.02;99830.27;130406;1268;108684;-76
2022/06/22 07:43:32;;;;;;;5.20;2.50;;;;;;;18.86;64.27;99829.39;130334;1268;108769;-77
2022/06/22 07:46:41;;;;;;;4.20;2.30;;;;;;;18.92;65.02;99829.41;130403;1268;108758;-76
2022/06/22 07:49:52;;;;;;;5.60;2.40;;;;;;;19.01;65.05;99823.38;130421;1267;108875;-76
2022/06/22 07:53:02;;;;;;;4.30;2.50;;;;;;;19.04;64.40;99830.50;130386;1268;107095;-76
2022/06/22 07:56:16;;;;;;;4.90;2.50;;;;;;;19.11;65.04;99830.20;130406;1268;108745;-78
2022/06/22 07:59:26;;;;;;;5.50;2.30;;;;;;;19.21;64.70;99832.20;129986;1266;349578;-76
2022/06/22 08:02:39;;;;;;;5.70;2.10;;;;;;;19.29;64.03;99836.40;130277;1268;108700;-76
2022/06/22 08:05:48;;;;;;;4.40;2.50;;;;;;;19.35;63.87;99837.50;130339;1268;108918;-77
2022/06/22 08:08:57;;;;;;;5.00;2.40;;;;;;;19.33;63.77;99831.48;130309;1267;108856;-76
2022/06/22 08:12:07;;;;;;;6.00;2.80;;;;;;;19.41;64.19;99828.02;130321;1268;108703;-77
2022/06/22 08:15:18;;;;;;;5.40;2.60;;;;;;;19.29;63.36;99832.98;130289;1268;108735;-77
2022/06/22 08:18:23;;;;;;;5.30;2.50;;;;;;;19.28;63.09;99836.35;130345;1268;108483;-78
2022/06/22 08:21:29;;;;;;;4.30;2.30;;;;;;;19.37;63.52;99834.16;130306;1267;108763;-77
2022/06/22 08:24:41;;;;;;;5.00;2.20;;;;;;;19.54;63.40;99828.98;130305;1265;107677;-77
2022/06/22 08:27:47;;;;;;;2.90;1.70;;;;;;;19.74;63.42;99830.22;130340;1267;108570;-77
2022/06/22 08:30:54;;;;;;;4.70;2.10;;;;;;;19.91;63.10;99830.51;130258;1268;108892;-77
2022/06/22 08:34:03;;;;;;;4.80;2.00;;;;;;;20.07;62.65;99830.50;130348;1268;108741;-78
2022/06/22 08:37:13;;;;;;;4.60;2.20;;;;;;;20.03;61.82;99828.55;130302;1267;108714;-77
2022/06/22 08:40:29;;;;;;;3.70;2.00;;;;;;;20.02;60.95;99835.89;130310;1267;108892;-77
2022/06/22 08:43:43;;;;;;;3.20;1.90;;;;;;;19.99;60.81;99835.27;130304;1268;108941;-77
2022/06/22 08:47:22;;;;;;;4.60;1.90;;;;;;;20.14;61.94;99830.01;130284;1268;107731;-77
2022/06/22 08:50:46;;;;;;;3.20;1.60;;;;;;;20.35;60.43;99826.54;130240;1268;108722;-77
2022/06/22 08:54:10;;;;;;;3.60;1.90;;;;;;;20.53;60.34;99819.05;130336;1268;108815;-77
2022/06/22 08:57:27;;;;;;;3.90;1.80;;;;;;;20.57;59.15;99826.72;130307;1268;108622;-77
2022/06/22 09:00:38;;;;;;;2.50;1.70;;;;;;;20.34;59.95;99834.10;130302;1268;108761;-77
2022/06/22 09:04:07;;;;;;;4.30;2.10;;;;;;;20.27;60.16;99838.17;130184;1268;108710;-78
2022/06/22 09:07:27;;;;;;;3.20;1.50;;;;;;;20.36;59.35;99837.98;130247;1268;109075;-77
2022/06/22 09:10:56;;;;;;;3.00;1.60;;;;;;;20.42;59.74;99836.21;130312;1268;109030;-77
2022/06/22 09:14:25;;;;;;;3.50;1.50;;;;;;;20.47;58.33;99838.31;130296;1268;108459;-77
2022/06/22 09:17:48;;;;;;;3.20;1.80;;;;;;;20.45;57.63;99841.17;130311;1268;109015;-76
2022/06/22 09:21:08;;;;;;;3.70;1.60;;;;;;;20.53;58.23;99841.19;130354;1267;108630;-77
2022/06/22 09:24:23;;;;;;;3.30;1.70;;;;;;;20.50;56.27;99840.45;130275;1268;107679;-77
2022/06/22 09:27:42;;;;;;;2.30;1.40;;;;;;;20.54;57.46;99835.42;130283;1268;107832;-77
2022/06/22 09:31:06;;;;;;;4.20;1.50;;;;;;;20.80;56.96;99842.05;130323;1268;108946;-78
2022/06/22 09:34:23;;;;;;;3.90;1.50;;;;;;;21.03;57.44;99836.90;130328;1268;107786;-77
2022/06/22 09:37:42;;;;;;;3.60;1.80;;;;;;;21.09;55.01;99843.39;130251;1268;108605;-77
2022/06/22 09:40:58;;;;;;;2.80;1.60;;;;;;;21.07;56.29;99839.61;130266;1268;107815;-77
2022/06/22 09:44:32;;;;;;;3.30;1.50;;;;;;;21.14;55.38;99835.05;130302;1268;108735;-77
2022/06/22 09:48:25;;;;;;;2.70;1.70;;;;;;;21.01;56.32;99836.15;130319;1268;108800;-78
2022/06/22 09:51:46;;;;;;;2.80;1.40;;;;;;;20.96;56.24;99835.03;130179;1267;108763;-77
2022/06/22 09:58:46;;;;;;;3.50;1.50;;;;;;;21.25;54.14;99840.92;130298;1267;109491;-77
2022/06/22 10:02:06;;;;;;;2.60;1.50;;;;;;;20.93;54.55;99840.88;130234;1268;108725;-78
2022/06/22 10:06:01;;;;;;;2.50;1.30;;;;;;;21.00;55.31;99835.84;130255;1268;108830;-77
2022/06/22 10:09:25;;;;;;;2.70;1.30;;;;;;;21.26;53.46;99837.53;129708;1273;108750;-78
2022/06/22 10:12:56;;;;;;;2.50;1.50;;;;;;;21.37;53.54;99841.64;129753;1268;108949;-78
2022/06/22 10:16:19;;;;;;;2.50;1.30;;;;;;;21.40;51.84;99846.43;130255;1268;108829;-77
2022/06/22 10:19:38;;;;;;;3.80;1.80;;;;;;;21.33;52.78;99855.56;130233;1268;108953;-77
2022/06/22 10:23:00;;;;;;;4.10;1.60;;;;;;;21.35;52.32;99862.00;130263;1267;108928;-78
2022/06/22 10:26:20;;;;;;;2.50;1.40;;;;;;;21.23;51.95;99857.04;130243;1268;108852;-77
2022/06/22 10:29:46;;;;;;;4.10;1.40;;;;;;;21.20;53.31;99851.48;130288;1268;108886;-77
2022/06/22 10:33:21;;;;;;;3.00;1.60;;;;;;;21.40;53.27;99853.17;130291;1268;108761;-76
2022/06/22 10:36:45;;;;;;;4.70;1.30;;;;;;;21.24;51.38;99851.88;130284;1267;108899;-77
2022/06/22 10:40:08;;;;;;;1.80;1.10;;;;;;;21.13;51.77;99849.85;130273;1268;108661;-76
2022/06/22 10:46:52;;;;;;;2.60;1.20;;;;;;;21.34;50.59;99839.83;130291;1267;108701;-77
2022/06/22 10:50:15;;;;;;;4.70;1.20;;;;;;;21.35;50.18;99842.75;130238;1268;108796;-76
2022/06/22 10:53:43;;;;;;;3.20;1.30;;;;;;;21.32;50.31;99837.30;130266;1267;107704;-78
2022/06/22 10:57:04;;;;;;;1.80;1.30;;;;;;;21.45;52.00;99825.79;130296;1267;108830;-76
2022/06/22 11:00:20;;;;;;;2.60;1.30;;;;;;;21.59;50.69;99815.96;130242;1268;107354;-78
2022/06/22 11:04:07;;;;;;;2.70;1.20;;;;;;;21.58;49.93;99832.46;130258;1267;109042;-77
2022/06/22 11:07:35;;;;;;;2.30;1.20;;;;;;;21.63;51.07;99826.33;130113;1268;108833;-79
2022/06/22 11:10:54;;;;;;;4.20;1.60;;;;;;;21.69;50.92;99826.30;130326;1268;108724;-79
2022/06/22 11:14:27;;;;;;;1.60;1.30;;;;;;;21.64;48.96;99825.11;130302;1268;108732;-78
2022/06/22 11:17:56;;;;;;;1.70;1.20;;;;;;;21.64;49.41;99828.52;130275;1267;108650;-79
2022/06/22 11:21:12;;;;;;;3.40;1.20;;;;;;;21.59;46.65;99831.27;130283;1268;108760;-78
2022/06/22 11:24:53;;;;;;;3.20;1.20;;;;;;;21.53;48.42;99830.50;130319;1268;108821;-78
2022/06/22 11:31:37;;;;;;;;;;;;;;;21.64;48.44;99823.21;130341;1267;108586;-79
2022/06/22 11:35:06;;;;;;;;;;;;;;;21.69;48.48;99826.46;130316;1267;109010;-77
2022/06/22 11:38:37;;;;;;;2.20;1.20;;;;;;;21.61;48.09;99829.34;130285;1268;108739;-78
2022/06/22 11:41:56;;;;;;;3.00;1.40;;;;;;;21.66;48.62;99831.07;130280;1267;108779;-77
2022/06/22 11:49:08;;;;;;;3.30;1.30;;;;;;;21.72;47.85;99828.87;130296;1267;107523;-77
2022/06/22 11:52:35;;;;;;;2.00;1.20;;;;;;;21.71;46.33;99829.23;130300;1267;108736;-76
2022/06/22 11:55:45;;;;;;;3.10;1.30;;;;;;;21.73;47.96;99824.83;130376;1267;108766;-76
2022/06/22 11:59:16;;;;;;;4.00;1.20;;;;;;;21.83;47.84;99827.26;130278;1267;108769;-78
2022/06/22 12:02:59;;;;;;;1.90;1.30;;;;;;;21.93;47.35;99825.77;130283;1267;108710;-78
2022/06/22 12:06:37;;;;;;;2.00;1.30;;;;;;;21.88;44.40;99836.85;130248;1268;109059;-80
2022/06/22 12:10:00;;;;;;;2.20;1.20;;;;;;;21.80;46.24;99830.83;130326;1268;108887;-78
2022/06/22 12:13:21;;;;;;;1.90;1.00;;;;;;;21.87;45.79;99836.04;130230;1268;108677;-79
2022/06/22 12:16:32;;;;;;;3.50;1.10;;;;;;;21.89;45.02;99835.92;130272;1267;108939;-79
2022/06/22 12:19:49;;;;;;;1.80;1.30;;;;;;;21.86;45.96;99827.56;130250;1267;108668;-79
2022/06/22 12:23:02;;;;;;;2.00;1.00;;;;;;;21.90;45.32;99832.38;130307;1267;108823;-78
2022/06/22 12:26:25;;;;;;;1.80;1.00;;;;;;;21.96;45.55;99832.01;130266;1267;108710;-78
2022/06/22 12:29:48;;;;;;;1.70;1.10;;;;;;;21.99;44.44;99830.21;130350;1268;108692;-79
2022/06/22 12:33:00;;;;;;;1.70;1.10;;;;;;;21.95;44.59;99828.02;130262;1268;108819;-78
2022/06/22 12:36:11;;;;;;;2.10;1.30;;;;;;;21.96;44.42;99830.05;130276;1268;108720;-79
2022/06/22 12:39:22;;;;;;;4.10;1.50;;;;;;;21.99;43.85;99828.09;130306;1267;108966;-79
2022/06/22 12:42:50;;;;;;;2.20;1.30;;;;;;;21.96;45.01;99825.01;130323;1267;108748;-78
2022/06/22 12:45:57;;;;;;;2.40;1.40;;;;;;;22.01;43.73;99817.27;130357;1268;108637;-78
2022/06/22 12:49:23;;;;;;;4.40;1.40;;;;;;;22.04;44.27;99819.73;130331;1267;109225;-79
2022/06/22 12:52:35;;;;;;;2.80;1.40;;;;;;;22.10;43.69;99811.80;130298;1267;108910;-77
2022/06/22 12:55:45;;;;;;;1.70;1.10;;;;;;;22.08;43.54;99810.97;130332;1267;108842;-77
2022/06/22 12:58:54;;;;;;;3.50;1.50;;;;;;;22.13;42.46;99813.40;130216;1268;108904;-77
2022/06/22 13:02:02;;;;;;;2.00;1.50;;;;;;;22.13;43.73;99812.80;130363;1267;108862;-80
2022/06/22 13:05:14;;;;;;;1.80;1.20;;;;;;;22.14;43.07;99816.63;130338;1267;107150;-79
2022/06/22 13:08:23;;;;;;;2.00;1.30;;;;;;;22.16;43.76;99806.63;130346;1267;108661;-79
2022/06/22 13:11:31;;;;;;;2.00;1.30;;;;;;;22.20;43.36;99798.94;130356;1267;108813;-80
2022/06/22 13:14:40;;;;;;;2.60;1.40;;;;;;;22.27;43.38;99800.95;130350;1267;108891;-77
2022/06/22 13:17:54;;;;;;;2.80;1.30;;;;;;;22.29;43.81;99803.77;130350;1268;108862;-80
2022/06/22 13:21:06;;;;;;;1.90;1.40;;;;;;;22.35;43.15;99804.09;130348;1268;107684;-78
2022/06/22 13:24:22;;;;;;;2.90;1.50;;;;;;;22.39;42.42;99804.64;130318;1268;108692;-78
2022/06/22 13:27:38;;;;;;;2.60;1.40;;;;;;;22.34;42.36;99805.92;130314;1268;107744;-77
2022/06/22 13:30:47;;;;;;;2.50;1.40;;;;;;;22.35;43.46;99801.38;130346;1267;108259;-78
2022/06/22 13:33:56;;;;;;;2.00;1.60;;;;;;;22.45;43.51;99806.77;130308;1267;108849;-77
2022/06/22 13:37:10;;;;;;;1.70;1.20;;;;;;;22.49;43.25;99804.95;130270;1267;108862;-77
2022/06/22 13:40:27;;;;;;;2.00;1.40;;;;;;;22.60;43.63;99799.45;130322;1267;108703;-80
2022/06/22 13:43:46;;;;;;;1.90;1.20;;;;;;;22.67;43.26;99788.70;130324;1267;108729;-79
2022/06/22 13:47:10;;;;;;;3.00;1.60;;;;;;;22.66;42.60;99791.84;130293;1267;108850;-78
2022/06/22 13:50:32;;;;;;;2.70;1.40;;;;;;;22.63;41.90;99794.52;130306;1267;108861;-80
2022/06/22 13:54:15;;;;;;;2.30;1.30;;;;;;;22.66;43.24;99792.01;130412;1267;107319;-79
2022/06/22 13:57:32;;;;;;;2.20;1.40;;;;;;;22.82;43.39;99793.00;130267;1268;108859;-79
2022/06/22 14:00:51;;;;;;;3.10;1.40;;;;;;;22.90;43.01;99799.77;130325;1268;109739;-78
2022/06/22 14:04:03;;;;;;;2.70;1.30;;;;;;;22.96;43.43;99791.02;130315;1267;108831;-78
2022/06/22 14:07:15;;;;;;;3.30;1.50;;;;;;;23.05;43.20;99782.75;130338;1267;109673;-78
2022/06/22 14:10:28;;;;;;;2.50;1.40;;;;;;;23.02;42.46;99784.80;130278;1267;108649;-79
2022/06/22 14:13:41;;;;;;;1.90;1.50;;;;;;;23.02;43.27;99784.16;130270;1268;108785;-79
2022/06/22 14:16:53;;;;;;;2.70;1.40;;;;;;;23.12;42.28;99778.45;130354;1267;108629;-78
2022/06/22 14:20:03;;;;;;;2.10;1.20;;;;;;;23.18;43.40;99782.46;130286;1268;108959;-79
2022/06/22 14:23:16;;;;;;;2.00;1.40;;;;;;;23.31;42.97;99786.39;130292;1268;108744;-77
2022/06/22 14:27:03;;;;;;;2.50;1.50;;;;;;;23.43;43.15;99786.51;130257;1267;108888;-78
2022/06/22 14:30:24;;;;;;;3.50;1.60;;;;;;;23.58;43.14;99788.52;130371;1267;108845;-79
2022/06/22 14:34:02;;;;;;;2.70;1.60;;;;;;;23.66;42.18;99790.10;130384;1267;109022;-78
2022/06/22 14:37:13;;;;;;;2.80;1.50;;;;;;;23.58;41.51;99797.57;130314;1267;108761;-79
2022/06/22 14:40:25;;;;;;;4.70;2.10;;;;;;;23.51;41.46;99797.29;130354;1267;107792;-79
2022/06/22 14:43:36;;;;;;;3.70;1.70;;;;;;;23.44;41.73;99792.39;130288;1267;108734;-79
2022/06/22 14:46:47;;;;;;;9.30;3.40;;;;;;;23.51;41.13;99794.80;130352;1267;108718;-78
2022/06/22 14:50:02;;;;;;;3.40;1.60;;;;;;;23.64;42.40;99792.36;130312;1267;109014;-78
2022/06/22 14:53:21;;;;;;;3.80;1.40;;;;;;;23.85;42.27;99785.31;130385;1267;108846;-79
2022/06/22 14:56:33;;;;;;;2.10;1.30;;;;;;;23.88;41.84;99785.60;130378;1268;108666;-79
2022/06/22 14:59:42;;;;;;;1.80;1.50;;;;;;;23.87;41.50;99787.11;130277;1268;108712;-79
2022/06/22 15:02:56;;;;;;;2.30;1.50;;;;;;;23.76;39.99;99792.23;130297;1268;108896;-78
2022/06/22 15:06:12;;;;;;;2.60;1.40;;;;;;;23.72;40.78;99788.88;130378;1267;108982;-79
2022/06/22 15:09:22;;;;;;;2.90;1.30;;;;;;;23.73;41.21;99790.73;130207;1268;109568;-79
2022/06/22 15:12:58;;;;;;;2.30;1.50;;;;;;;23.80;40.34;99794.63;130322;1267;108638;-79
2022/06/22 15:16:08;;;;;;;3.80;1.20;;;;;;;23.72;41.36;99791.49;130326;1268;108763;-79
2022/06/22 15:19:23;;;;;;;1.80;1.50;;;;;;;23.67;41.57;99791.91;130325;1267;108753;-79
2022/06/22 15:22:42;;;;;;;2.50;1.50;;;;;;;23.64;41.44;99791.87;130328;1267;108687;-79